createdAt,value
2022-10-18T00:01:06.290Z,87.65
2022-10-18T00:03:34.979Z,87.48
2022-10-18T00:06:02.987Z,87.46
2022-10-18T00:08:30.625Z,87.77
2022-10-18T00:10:58.352Z,87.80
2022-10-18T00:13:26.640Z,87.90
2022-10-18T00:16:00.652Z,88.03
2022-10-18T00:18:29.339Z,87.99
2022-10-18T00:21:03.126Z,87.81
2022-10-18T00:23:32.397Z,88.09
2022-10-18T00:26:06.179Z,88.06
2022-10-18T00:28:35.745Z,88.06
2022-10-18T00:31:19.548Z,88.44
2022-10-18T00:33:51.312Z,88.45
2022-10-18T00:36:19.586Z,88.48
2022-10-18T00:38:48.174Z,88.27
2022-10-18T00:41:20.306Z,88.71
2022-10-18T00:44:04.739Z,89.37
2022-10-18T00:46:35.982Z,89.44
2022-10-18T00:49:28.782Z,89.53
2022-10-18T00:51:57.854Z,89.60
2022-10-18T00:54:28.406Z,89.54
2022-10-18T00:56:56.194Z,89.55
2022-10-18T00:59:24.767Z,89.78
2022-10-18T01:01:52.538Z,90.00
2022-10-18T01:04:22.103Z,89.82
2022-10-18T01:07:26.478Z,89.50
2022-10-18T01:10:26.895Z,89.36
2022-10-18T01:13:14.554Z,88.93
2022-10-18T01:16:04.818Z,88.83
2022-10-18T01:19:01.291Z,89.00
2022-10-18T01:22:08.643Z,88.80
2022-10-18T01:24:57.424Z,89.08
2022-10-18T01:28:12.543Z,88.75
2022-10-18T01:30:47.700Z,88.73
2022-10-18T01:33:45.871Z,88.62
2022-10-18T01:36:31.590Z,88.67
2022-10-18T01:39:06.288Z,88.27
2022-10-18T01:41:39.811Z,88.07
2022-10-18T01:44:15.180Z,87.79
2022-10-18T01:46:44.824Z,87.86
2022-10-18T01:49:12.459Z,87.68
2022-10-18T01:51:39.976Z,87.50
2022-10-18T01:54:07.668Z,87.51
2022-10-18T01:56:46.459Z,87.43
2022-10-18T01:59:16.529Z,87.24
2022-10-18T02:02:07.943Z,87.04
2022-10-18T02:04:59.077Z,87.44
2022-10-18T02:08:05.621Z,87.40
2022-10-18T02:10:48.538Z,88.23
2022-10-18T02:13:20.653Z,88.51
2022-10-18T02:15:55.147Z,88.40
2022-10-18T02:18:36.520Z,88.80
2022-10-18T02:21:08.382Z,89.53
2022-10-18T02:23:38.052Z,89.55
2022-10-18T02:26:06.784Z,89.54
2022-10-18T02:28:34.664Z,89.64
2022-10-18T02:31:26.249Z,90.40
2022-10-18T02:34:00.406Z,90.39
2022-10-18T02:36:59.522Z,90.10
2022-10-18T02:39:36.354Z,90.31
2022-10-18T02:42:06.705Z,90.22
2022-10-18T02:44:35.858Z,90.36
2022-10-18T02:47:05.663Z,90.42
2022-10-18T02:49:33.124Z,90.32
2022-10-18T02:52:00.687Z,89.61
2022-10-18T02:54:28.275Z,89.42
2022-10-18T02:56:55.791Z,89.29
2022-10-18T02:59:23.231Z,89.33
2022-10-18T03:01:50.705Z,89.56
2022-10-18T03:04:18.318Z,89.67
2022-10-18T03:06:45.875Z,89.45
2022-10-18T03:09:13.399Z,89.84
2022-10-18T03:11:40.811Z,89.81
2022-10-18T03:14:08.259Z,89.93
2022-10-18T03:16:35.743Z,89.49
2022-10-18T03:19:03.614Z,89.48
2022-10-18T03:21:31.150Z,88.77
2022-10-18T03:23:59.726Z,88.95
2022-10-18T03:26:27.017Z,88.76
2022-10-18T03:28:54.658Z,88.36
2022-10-18T03:31:22.222Z,87.99
2022-10-18T03:33:49.834Z,87.80
2022-10-18T03:36:17.586Z,87.50
2022-10-18T03:38:45.013Z,87.59
2022-10-18T03:41:12.520Z,87.97
2022-10-18T03:43:39.951Z,88.25
2022-10-18T03:46:07.823Z,88.44
2022-10-18T03:48:35.264Z,88.57
2022-10-18T03:51:02.875Z,88.72
2022-10-18T03:53:30.460Z,88.50
2022-10-18T03:55:57.895Z,88.62
2022-10-18T03:58:25.549Z,88.97
2022-10-18T04:00:55.287Z,89.26
2022-10-18T04:03:23.520Z,89.44
2022-10-18T04:05:51.293Z,89.58
2022-10-18T04:08:19.315Z,89.74
2022-10-18T04:10:47.023Z,90.29
2022-10-18T04:13:14.546Z,90.20
2022-10-18T04:15:43.123Z,90.01
2022-10-18T04:18:10.554Z,89.88
2022-10-18T04:20:38.025Z,90.00
2022-10-18T04:23:05.484Z,90.25
2022-10-18T04:25:33.007Z,90.11
2022-10-18T04:28:00.627Z,90.25
2022-10-18T04:30:28.046Z,89.71
2022-10-18T04:32:55.519Z,89.24
2022-10-18T04:35:25.868Z,89.00
2022-10-18T04:37:53.354Z,89.05
2022-10-18T04:40:21.582Z,88.77
2022-10-18T04:42:49.088Z,89.07
2022-10-18T04:45:16.535Z,89.83
2022-10-18T04:47:44.067Z,90.36
2022-10-18T04:50:11.535Z,90.22
2022-10-18T04:52:39.057Z,89.55
2022-10-18T04:55:07.242Z,89.42
2022-10-18T04:57:34.953Z,90.30
2022-10-18T05:00:03.103Z,90.81
2022-10-18T05:02:31.174Z,90.57
2022-10-18T05:04:59.036Z,90.32
2022-10-18T05:07:26.495Z,89.32
2022-10-18T05:09:54.050Z,89.22
2022-10-18T05:12:22.340Z,88.36
2022-10-18T05:14:49.831Z,87.55
2022-10-18T05:17:17.319Z,85.71
2022-10-18T05:19:44.732Z,83.85
2022-10-18T05:22:12.302Z,81.29
2022-10-18T05:24:39.930Z,79.66
2022-10-18T05:27:07.522Z,78.19
2022-10-18T05:29:34.996Z,77.41
2022-10-18T05:32:02.408Z,76.22
2022-10-18T05:34:32.023Z,75.79
2022-10-18T05:37:00.673Z,75.83
2022-10-18T05:39:28.163Z,74.01
2022-10-18T05:41:55.674Z,73.08
2022-10-18T05:44:23.160Z,72.93
2022-10-18T05:46:50.669Z,72.46
2022-10-18T05:49:18.262Z,70.98
2022-10-18T05:51:45.795Z,66.91
2022-10-18T05:54:14.272Z,63.26
2022-10-18T05:56:42.262Z,62.84
2022-10-18T05:59:12.605Z,62.97
2022-10-18T06:01:42.694Z,63.35
2022-10-18T06:04:10.577Z,62.57
2022-10-18T06:06:39.597Z,59.44
2022-10-18T06:09:08.603Z,56.59
2022-10-18T06:11:37.333Z,54.46
2022-10-18T06:14:05.583Z,52.45
2022-10-18T06:16:33.118Z,48.10
2022-10-18T06:19:00.670Z,50.99
2022-10-18T06:21:28.327Z,49.61
2022-10-18T06:23:59.045Z,49.54
2022-10-18T06:26:27.982Z,47.00
2022-10-18T06:28:55.498Z,43.68
2022-10-18T06:31:23.299Z,40.72
2022-10-18T06:33:50.824Z,37.53
2022-10-18T06:36:24.042Z,37.31
2022-10-18T06:38:52.037Z,35.45
2022-10-18T06:41:20.442Z,35.59
2022-10-18T06:43:57.482Z,32.44
2022-10-18T06:46:26.025Z,32.43
2022-10-18T06:48:53.543Z,33.45
2022-10-18T06:51:21.208Z,33.74
2022-10-18T06:53:59.622Z,33.01
2022-10-18T06:56:37.272Z,29.92
2022-10-18T06:59:05.125Z,30.23
2022-10-18T07:01:32.830Z,28.29
2022-10-18T07:04:00.370Z,29.63
2022-10-18T07:06:28.013Z,29.56
2022-10-18T07:08:56.171Z,28.55
2022-10-18T07:11:27.021Z,26.30
2022-10-18T07:14:02.982Z,26.76
2022-10-18T07:16:32.510Z,26.07
2022-10-18T07:18:59.992Z,26.59
2022-10-18T07:21:27.671Z,28.88
2022-10-18T07:23:56.044Z,29.66
2022-10-18T07:26:30.835Z,29.64
2022-10-18T07:29:05.118Z,29.25
2022-10-18T07:31:33.399Z,27.14
2022-10-18T07:34:01.155Z,29.52
2022-10-18T07:36:28.594Z,29.37
2022-10-18T07:38:56.316Z,29.32
2022-10-18T07:41:23.995Z,27.68
2022-10-18T07:43:53.660Z,29.00
2022-10-18T07:46:23.014Z,27.04
2022-10-18T07:48:51.499Z,27.21
2022-10-18T07:51:21.001Z,27.75
2022-10-18T07:53:48.559Z,28.55
2022-10-18T07:56:21.145Z,27.08
2022-10-18T07:58:53.173Z,26.31
2022-10-18T08:01:22.961Z,25.38
2022-10-18T08:03:51.518Z,24.55
2022-10-18T08:06:21.574Z,24.42
2022-10-18T08:08:49.378Z,24.48
2022-10-18T08:11:23.823Z,23.00
2022-10-18T08:13:53.473Z,22.76
2022-10-18T08:16:24.839Z,23.66
2022-10-18T08:18:52.750Z,23.68
2022-10-18T08:21:21.896Z,23.06
2022-10-18T08:23:49.883Z,23.88
2022-10-18T08:26:20.859Z,24.47
2022-10-18T08:28:58.184Z,22.95
2022-10-18T08:31:37.185Z,22.55
2022-10-18T08:34:04.651Z,23.96
2022-10-18T08:36:32.236Z,25.32
2022-10-18T08:38:59.786Z,24.95
2022-10-18T08:41:39.404Z,24.25
2022-10-18T08:44:27.255Z,25.99
2022-10-18T08:47:11.125Z,24.13
2022-10-18T08:50:06.643Z,25.05
2022-10-18T08:52:55.241Z,24.00
2022-10-18T08:55:59.917Z,23.37
2022-10-18T08:58:33.323Z,24.10
2022-10-18T09:01:57.155Z,22.10
2022-10-18T09:04:49.423Z,22.32
2022-10-18T09:07:42.303Z,22.11
2022-10-18T09:10:27.186Z,22.16
2022-10-18T09:13:46.977Z,22.58
2022-10-18T09:16:37.376Z,22.82
2022-10-18T09:19:55.897Z,24.07
2022-10-18T09:22:50.094Z,23.96
2022-10-18T09:25:23.457Z,23.20
2022-10-18T09:28:33.474Z,24.59
2022-10-18T09:31:26.162Z,23.00
2022-10-18T09:34:10.863Z,24.31
2022-10-18T09:36:39.871Z,23.32
2022-10-18T09:39:18.880Z,22.21
2022-10-18T09:41:59.063Z,20.58
2022-10-18T09:44:39.264Z,22.50
2022-10-18T09:47:48.494Z,20.30
2022-10-18T09:50:31.734Z,20.84
2022-10-18T09:53:18.043Z,20.13
2022-10-18T09:56:07.479Z,18.94
2022-10-18T09:58:46.887Z,17.63
2022-10-18T10:01:25.650Z,17.45
2022-10-18T10:03:53.603Z,18.03
2022-10-18T10:06:29.518Z,18.19
2022-10-18T10:09:15.654Z,18.04
2022-10-18T10:11:50.742Z,17.58
2022-10-18T10:14:30.186Z,17.28
2022-10-18T10:17:07.053Z,18.31
2022-10-18T10:19:54.663Z,18.06
2022-10-18T10:22:36.872Z,18.07
2022-10-18T10:25:06.679Z,17.90
2022-10-18T10:27:47.471Z,18.91
2022-10-18T10:30:32.109Z,19.68
2022-10-18T10:32:59.755Z,20.50
2022-10-18T10:35:54.348Z,20.31
2022-10-18T10:38:28.724Z,20.32
2022-10-18T10:40:57.372Z,19.02
2022-10-18T10:43:37.708Z,20.66
2022-10-18T10:46:15.550Z,22.10
2022-10-18T10:49:21.757Z,22.53
2022-10-18T10:51:50.636Z,23.86
2022-10-18T10:54:27.567Z,22.48
2022-10-18T10:57:20.007Z,21.69
2022-10-18T10:59:59.695Z,23.47
2022-10-18T11:02:34.897Z,23.64
2022-10-18T11:05:29.184Z,23.83
2022-10-18T11:08:05.141Z,22.96
2022-10-18T11:10:43.032Z,23.91
2022-10-18T11:13:39.313Z,22.91
2022-10-18T11:16:22.548Z,22.60
2022-10-18T11:18:53.827Z,22.01
2022-10-18T11:21:29.211Z,23.02
2022-10-18T11:23:59.624Z,23.63
2022-10-18T11:26:58.395Z,24.04
2022-10-18T11:29:56.859Z,23.54
2022-10-18T11:32:46.174Z,23.78
2022-10-18T11:35:46.602Z,24.94
2022-10-18T11:39:13.514Z,25.50
2022-10-18T11:42:17.640Z,25.65
2022-10-18T11:45:08.294Z,26.12
2022-10-18T11:47:52.180Z,26.74
2022-10-18T11:50:30.097Z,26.46
2022-10-18T11:53:07.108Z,27.11
2022-10-18T11:56:20.836Z,27.16
2022-10-18T11:59:33.597Z,26.57
2022-10-18T12:02:51.148Z,29.92
2022-10-18T12:05:24.330Z,29.52
2022-10-18T12:08:42.347Z,30.85
2022-10-18T12:11:27.124Z,31.58
2022-10-18T12:14:13.966Z,32.45
2022-10-18T12:16:51.487Z,35.56
2022-10-18T12:19:29.322Z,37.25
2022-10-18T12:22:02.878Z,37.50
2022-10-18T12:24:31.996Z,38.15
2022-10-18T12:27:02.401Z,39.05
2022-10-18T12:29:50.798Z,38.28
2022-10-18T12:32:34.564Z,36.48
2022-10-18T12:35:11.781Z,37.43
2022-10-18T12:38:14.335Z,37.80
2022-10-18T12:40:46.804Z,38.05
2022-10-18T12:43:23.608Z,39.36
2022-10-18T12:46:01.710Z,38.68
2022-10-18T12:48:42.609Z,38.62
2022-10-18T12:51:16.792Z,38.35
2022-10-18T12:53:48.762Z,38.28
2022-10-18T12:56:28.102Z,38.51
2022-10-18T12:59:16.992Z,38.82
2022-10-18T13:01:53.417Z,38.92
2022-10-18T13:04:38.975Z,40.40
2022-10-18T13:07:20.144Z,40.57
2022-10-18T13:10:12.841Z,40.29
2022-10-18T13:12:49.622Z,39.25
2022-10-18T13:15:47.189Z,39.29
2022-10-18T13:18:23.468Z,39.08
2022-10-18T13:21:30.870Z,38.84
2022-10-18T13:24:22.409Z,39.16
2022-10-18T13:27:37.019Z,39.22
2022-10-18T13:30:27.686Z,39.05
2022-10-18T13:33:19.552Z,39.97
2022-10-18T13:36:23.424Z,39.67
2022-10-18T13:38:55.671Z,40.12
2022-10-18T13:41:34.568Z,39.58
2022-10-18T13:44:37.564Z,39.81
2022-10-18T13:47:05.003Z,39.94
2022-10-18T13:49:59.994Z,40.08
2022-10-18T13:53:24.599Z,39.79
2022-10-18T13:56:24.647Z,40.23
2022-10-18T13:59:43.780Z,40.05
2022-10-18T14:02:49.866Z,39.80
2022-10-18T14:05:56.926Z,39.57
2022-10-18T14:08:48.895Z,39.52
2022-10-18T14:11:33.627Z,40.10
2022-10-18T14:14:38.192Z,40.33
2022-10-18T14:17:16.835Z,40.40
2022-10-18T14:19:54.458Z,40.67
2022-10-18T14:22:41.367Z,40.53
2022-10-18T14:25:35.835Z,40.66
2022-10-18T14:28:12.601Z,39.97
2022-10-18T14:31:07.193Z,39.51
2022-10-18T14:33:48.106Z,39.81
2022-10-18T14:36:21.861Z,40.29
2022-10-18T14:38:59.587Z,40.60
2022-10-18T14:41:36.137Z,39.94
2022-10-18T14:44:15.094Z,39.65
2022-10-18T14:47:12.113Z,40.33
2022-10-18T14:49:44.882Z,40.85
2022-10-18T14:52:35.456Z,40.87
2022-10-18T14:55:03.933Z,40.71
2022-10-18T14:57:34.916Z,40.44
2022-10-18T15:00:09.314Z,41.19
2022-10-18T15:02:38.982Z,41.41
2022-10-18T15:05:21.523Z,41.91
2022-10-18T15:07:52.145Z,42.13
2022-10-18T15:10:28.988Z,42.82
2022-10-18T15:13:11.188Z,42.15
2022-10-18T15:15:40.100Z,41.39
2022-10-18T15:18:19.194Z,41.72
2022-10-18T15:21:26.820Z,41.16
2022-10-18T15:23:57.614Z,40.56
2022-10-18T15:26:29.929Z,40.35
2022-10-18T15:29:01.532Z,39.89
2022-10-18T15:31:35.745Z,40.33
2022-10-18T15:34:26.823Z,39.95
2022-10-18T15:36:57.056Z,40.33
2022-10-18T15:39:33.038Z,40.53
2022-10-18T15:42:02.763Z,40.88
2022-10-18T15:44:51.248Z,41.46
2022-10-18T15:47:21.690Z,41.35
2022-10-18T15:49:58.574Z,41.81
2022-10-18T15:52:43.407Z,41.57
2022-10-18T15:55:22.996Z,43.23
2022-10-18T15:57:50.549Z,44.45
2022-10-18T16:00:20.715Z,46.21
2022-10-18T16:02:48.254Z,46.91
2022-10-18T16:05:20.855Z,48.46
2022-10-18T16:07:54.816Z,49.13
2022-10-18T16:10:22.263Z,48.65
2022-10-18T16:12:49.722Z,49.41
2022-10-18T16:15:17.383Z,49.41
2022-10-18T16:17:44.998Z,49.63
2022-10-18T16:20:24.682Z,49.78
2022-10-18T16:22:52.124Z,50.19
2022-10-18T16:25:19.599Z,50.77
2022-10-18T16:27:47.139Z,50.40
2022-10-18T16:30:19.917Z,50.17
2022-10-18T16:32:48.881Z,49.87
2022-10-18T16:35:16.396Z,49.90
2022-10-18T16:37:43.923Z,50.63
2022-10-18T16:40:24.631Z,50.25
2022-10-18T16:42:52.130Z,50.68
2022-10-18T16:45:19.687Z,50.22
2022-10-18T16:47:47.252Z,51.89
2022-10-18T16:50:19.113Z,53.68
2022-10-18T16:52:46.541Z,54.36
2022-10-18T16:55:21.394Z,55.65
2022-10-18T16:57:50.285Z,56.27
2022-10-18T17:00:22.409Z,56.68
2022-10-18T17:02:50.314Z,57.31
2022-10-18T17:05:19.645Z,58.15
2022-10-18T17:07:47.688Z,58.56
2022-10-18T17:10:20.692Z,59.53
2022-10-18T17:12:48.123Z,60.29
2022-10-18T17:15:15.536Z,59.88
2022-10-18T17:17:43.348Z,59.98
2022-10-18T17:20:24.721Z,59.99
2022-10-18T17:22:53.327Z,59.84
2022-10-18T17:25:21.157Z,60.09
2022-10-18T17:27:48.719Z,60.32
2022-10-18T17:30:17.916Z,60.10
2022-10-18T17:32:45.470Z,60.96
2022-10-18T17:35:13.442Z,61.82
2022-10-18T17:37:44.045Z,62.28
2022-10-18T17:40:13.513Z,63.36
2022-10-18T17:42:41.159Z,63.97
2022-10-18T17:45:09.777Z,64.49
2022-10-18T17:47:37.220Z,64.51
2022-10-18T17:50:05.123Z,65.00
2022-10-18T17:52:32.629Z,64.92
2022-10-18T17:55:00.079Z,65.68
2022-10-18T17:57:27.542Z,66.20
2022-10-18T17:59:56.222Z,67.02
2022-10-18T18:02:23.675Z,67.73
2022-10-18T18:04:51.134Z,68.27
2022-10-18T18:07:18.543Z,68.67
2022-10-18T18:09:46.040Z,68.86
2022-10-18T18:12:13.500Z,68.90
2022-10-18T18:14:40.931Z,68.84
2022-10-18T18:17:08.955Z,68.71
2022-10-18T18:19:36.598Z,69.15
2022-10-18T18:22:05.231Z,69.37
2022-10-18T18:24:32.775Z,69.75
2022-10-18T18:27:00.253Z,69.95
2022-10-18T18:29:27.991Z,70.34
2022-10-18T18:31:55.555Z,70.59
2022-10-18T18:34:23.200Z,70.76
2022-10-18T18:36:51.913Z,71.18
2022-10-18T18:39:29.489Z,71.17
2022-10-18T18:41:56.958Z,71.51
2022-10-18T18:44:25.110Z,71.81
2022-10-18T18:46:52.635Z,72.10
2022-10-18T18:49:20.091Z,72.34
2022-10-18T18:51:47.879Z,72.46
2022-10-18T18:54:15.935Z,72.39
2022-10-18T18:56:43.706Z,72.55
2022-10-18T18:59:15.535Z,72.86
2022-10-18T19:01:43.901Z,73.15
2022-10-18T19:04:11.862Z,73.63
2022-10-18T19:06:45.592Z,73.81
2022-10-18T19:09:21.832Z,73.73
2022-10-18T19:11:55.494Z,73.67
2022-10-18T19:14:25.295Z,73.68
2022-10-18T19:16:57.493Z,73.71
2022-10-18T19:19:28.872Z,73.84
2022-10-18T19:21:59.777Z,73.91
2022-10-18T19:24:32.841Z,74.22
2022-10-18T19:27:05.956Z,74.26
2022-10-18T19:29:37.188Z,74.52
2022-10-18T19:32:12.203Z,74.89
2022-10-18T19:34:40.153Z,74.85
2022-10-18T19:37:09.454Z,75.23
2022-10-18T19:39:37.385Z,75.47
2022-10-18T19:42:14.691Z,75.67
2022-10-18T19:44:44.850Z,76.11
2022-10-18T19:47:14.586Z,76.29
2022-10-18T19:49:43.004Z,76.56
2022-10-18T19:52:12.279Z,76.71
2022-10-18T19:54:39.817Z,76.66
2022-10-18T19:57:07.584Z,76.89
2022-10-18T19:59:36.015Z,76.99
2022-10-18T20:02:04.767Z,77.27
2022-10-18T20:04:34.704Z,77.42
2022-10-18T20:07:02.847Z,77.42
2022-10-18T20:09:30.606Z,77.32
2022-10-18T20:11:58.051Z,77.35
2022-10-18T20:14:25.869Z,77.58
2022-10-18T20:16:53.306Z,77.62
2022-10-18T20:19:20.829Z,77.80
2022-10-18T20:21:48.279Z,77.84
2022-10-18T20:24:15.750Z,78.05
2022-10-18T20:26:43.788Z,77.97
2022-10-18T20:29:11.476Z,78.09
2022-10-18T20:31:39.430Z,77.88
2022-10-18T20:34:11.587Z,77.83
2022-10-18T20:36:39.785Z,77.95
2022-10-18T20:39:07.826Z,77.96
2022-10-18T20:41:40.849Z,77.99
2022-10-18T20:44:13.990Z,77.90
2022-10-18T20:46:42.600Z,78.04
2022-10-18T20:49:14.819Z,78.18
2022-10-18T20:51:42.964Z,78.35
2022-10-18T20:54:11.095Z,78.11
2022-10-18T20:56:39.434Z,77.98
2022-10-18T20:59:09.894Z,77.84
2022-10-18T21:01:39.301Z,78.20
2022-10-18T21:04:09.706Z,78.20
2022-10-18T21:06:42.475Z,78.00
2022-10-18T21:09:20.219Z,78.05
2022-10-18T21:11:51.156Z,77.99
2022-10-18T21:14:22.419Z,78.31
2022-10-18T21:16:52.166Z,78.35
2022-10-18T21:19:23.895Z,78.45
2022-10-18T21:21:56.600Z,78.45
2022-10-18T21:24:26.834Z,78.55
2022-10-18T21:26:54.850Z,78.46
2022-10-18T21:29:26.993Z,78.69
2022-10-18T21:31:59.451Z,78.87
2022-10-18T21:34:27.119Z,78.99
2022-10-18T21:36:54.583Z,79.08
2022-10-18T21:41:56.474Z,79.21
2022-10-18T21:44:24.152Z,79.36
2022-10-18T21:46:51.816Z,79.31
2022-10-18T21:49:19.549Z,79.54
2022-10-18T21:51:47.107Z,79.55
2022-10-18T21:54:16.368Z,79.67
2022-10-18T21:56:44.246Z,79.84
2022-10-18T21:59:14.794Z,80.36
2022-10-18T22:01:44.170Z,80.40
2022-10-18T22:04:24.052Z,80.69
2022-10-18T22:06:52.356Z,80.99
2022-10-18T22:09:21.244Z,80.94
2022-10-18T22:11:52.754Z,80.76
2022-10-18T22:14:21.154Z,80.73
2022-10-18T22:16:49.359Z,80.93
2022-10-18T22:19:16.896Z,80.99
2022-10-18T22:21:44.342Z,80.83
2022-10-18T22:24:11.809Z,80.92
2022-10-18T22:26:41.960Z,80.93
2022-10-18T22:29:20.258Z,81.20
2022-10-18T22:31:50.646Z,81.50
2022-10-18T22:34:22.220Z,81.80
2022-10-18T22:36:50.558Z,81.89
2022-10-18T22:39:18.074Z,82.14
2022-10-18T22:41:46.495Z,82.15
2022-10-18T22:44:15.068Z,82.41
2022-10-18T22:46:42.867Z,82.51
2022-10-18T22:49:11.263Z,82.88
2022-10-18T22:51:38.771Z,82.65
2022-10-18T22:54:06.443Z,82.92
2022-10-18T22:56:33.899Z,82.94
2022-10-18T22:59:01.382Z,82.90
2022-10-18T23:01:28.832Z,82.91
2022-10-18T23:03:59.917Z,82.82
2022-10-18T23:06:30.173Z,82.74
2022-10-18T23:09:00.997Z,83.17
2022-10-18T23:11:29.307Z,83.21
2022-10-18T23:13:56.795Z,82.96
2022-10-18T23:16:24.431Z,82.77
2022-10-18T23:18:55.308Z,82.64
2022-10-18T23:21:25.571Z,82.75
2022-10-18T23:23:53.987Z,82.78
2022-10-18T23:26:25.455Z,82.51
2022-10-18T23:28:54.559Z,82.92
2022-10-18T23:31:29.200Z,83.13
2022-10-18T23:34:00.739Z,83.20
2022-10-18T23:36:29.288Z,83.96
2022-10-18T23:38:56.690Z,84.54
2022-10-18T23:41:25.508Z,85.16
2022-10-18T23:43:53.670Z,85.48
2022-10-18T23:46:21.471Z,85.75
2022-10-18T23:48:49.821Z,85.71
2022-10-18T23:51:18.275Z,85.61
2022-10-18T23:53:45.683Z,85.41
2022-10-18T23:56:16.386Z,85.16
2022-10-18T23:58:45.379Z,84.95
